Latest Weather Observations for Nullo Mountain

IDN60801

Issued at 9:02 pm EDT Tuesday 21 February 2017 (issued every 30 minutes, with the page automatically refreshed every 10 minutes)

About weather observations | Map of weather stations | Latest weather observations for NSW | Other Formats
Station Details ID: 062100 Name: NULLO MOUNTAIN AWS Lat: -32.72 Lon: 150.23 Height: 1130.0 m
Data from the previous 72 hours. | See also: Recent months at Nullo Mountain
Date/Time
EDT
Temp
°C
App
Temp
°C
Dew
Point
°C
Rel
Hum
%
Delta-T
°C
Wind Press
QNH
hPa
Press
MSL
hPa
Rain since
9am
mm
Dir  Spd
km/h
Gust
km/h
Spd
kts
Gust
kts
21/09:00pm 16.1 12.1 11.7 75 2.5 E 24 33 13 18 - - 0.0
21/08:30pm 16.9 13.2 11.6 71 3.0 ESE 22 33 12 18 - - 0.0
21/08:00pm 18.3 15.9 10.2 59 4.6 E 13 20 7 11 - - 0.0
21/07:30pm 19.5 17.6 4.8 38 7.6 E 4 6 2 3 - - 0.0
21/07:00pm 21.2 18.5 3.9 32 8.8 NE 7 13 4 7 - - 0.0
21/06:30pm 22.4 19.5 4.5 31 9.3 NNE 9 15 5 8 - - 0.0
21/06:00pm 23.1 20.3 3.1 27 10.2 ENE 7 17 4 9 - - 0.0
21/05:30pm 23.6 20.4 3.0 26 10.5 E 9 17 5 9 - - 0.0
21/05:00pm 23.1 20.1 2.0 25 10.5 ENE 7 11 4 6 - - 0.0
21/04:30pm 23.6 20.7 4.5 29 10.0 SE 9 17 5 9 - - 0.0
21/04:00pm 23.0 19.6 4.0 29 9.8 ESE 11 17 6 9 - - 0.0
21/03:30pm 22.2 18.7 3.3 29 9.6 ESE 11 20 6 11 - - 0.0
21/03:00pm 22.4 18.8 4.9 32 9.2 ESE 13 20 7 11 - - 0.0
21/02:30pm 22.6 19.5 5.5 33 9.1 E 11 17 6 9 - - 0.0
21/02:00pm 21.6 18.9 5.5 35 8.5 E 9 17 5 9 - - 0.0
21/01:30pm 21.0 17.9 5.4 36 8.2 ESE 11 20 6 11 - - 0.0
21/01:00pm 20.1 17.0 5.7 39 7.6 ESE 11 19 6 10 - - 0.0
21/12:30pm 20.0 17.3 7.4 44 6.8 ESE 11 19 6 10 - - 0.0
21/12:00pm 18.7 16.5 7.8 49 5.9 E 9 17 5 9 - - 0.0
21/11:30am 17.9 15.7 7.9 52 5.4 ESE 9 17 5 9 - - 0.0
21/11:00am 17.4 15.4 8.5 56 4.8 ENE 9 15 5 8 - - 0.0
21/10:30am 16.6 14.8 7.8 56 4.7 ENE 7 13 4 7 - - 0.0
21/10:00am 15.5 12.8 7.5 59 4.2 ESE 11 19 6 10 - - 0.0
21/09:30am 15.4 12.8 7.7 60 4.1 E 11 17 6 9 - - 0.0
21/09:00am 14.5 12.3 7.8 64 3.5 ESE 9 13 5 7 - - 0.0
21/08:30am 13.4 10.3 7.4 67 3.1 ESE 13 17 7 9 - - 0.0
21/08:00am 13.1 10.6 8.2 72 2.6 ESE 11 15 6 8 - - 0.0
21/07:30am 11.7 9.5 7.8 77 2.0 ESE 9 13 5 7 - - 0.0
21/07:00am 10.5 8.2 7.4 81 1.6 ESE 9 15 5 8 - - 0.0
21/06:30am 11.1 8.1 5.8 70 2.6 ESE 11 15 6 8 - - 0.0
21/06:00am 11.2 8.2 4.2 62 3.4 ESE 9 15 5 8 - - 0.0
21/05:30am 10.8 7.4 3.8 62 3.3 ESE 11 15 6 8 - - 0.0
21/05:00am 11.4 8.0 4.2 61 3.5 SE 11 17 6 9 - - 0.0
21/04:30am 11.4 7.9 3.4 58 3.8 SE 11 15 6 8 - - 0.0
21/04:00am 11.4 8.2 2.9 56 4.0 SE 9 15 5 8 - - 0.0
21/03:30am 10.9 6.6 -1.8 41 5.3 SSE 11 15 6 8 - - 0.0
21/03:00am 10.9 6.9 -2.5 39 5.5 SSE 9 13 5 7 - - 0.0
21/02:30am 11.4 7.4 -2.4 38 5.7 SE 9 13 5 7 - - 0.0
21/02:00am 11.1 7.6 -1.6 41 5.3 ESE 7 11 4 6 - - 0.0
21/01:30am 11.6 8.0 -2.2 38 5.8 SE 7 11 4 6 - - 0.0
21/01:00am 11.6 7.5 -2.9 36 5.9 SSE 9 13 5 7 - - 0.0
21/12:30am 11.9 7.5 -2.7 36 6.0 SSE 11 13 6 7 - - 0.0
21/12:00am 11.2 7.2 -1.9 40 5.5 SSE 9 11 5 6 - - 0.0
 
Date/Time
EDT
Temp
°C
App
Temp
°C
Dew
Point
°C
Rel
Hum
%
Delta-T
°C
Wind Press
QNH
hPa
Press
MSL
hPa
Rain since
9am
mm
Dir  Spd
km/h
Gust
km/h
Spd
kts
Gust
kts
20/11:30pm 11.0 7.4 -2.1 40 5.4 SSE 7 9 4 5 - - 0.0
20/11:00pm 12.9 8.9 -2.6 34 6.5 S 9 13 5 7 - - 0.0
20/10:30pm 13.2 9.5 -2.7 33 6.7 SW 7 11 4 6 - - 0.0
20/10:00pm 13.3 9.7 -3.4 31 6.9 WSW 6 7 3 4 - - 0.0
20/09:30pm 13.3 9.7 -3.4 31 6.9 SW 6 7 3 4 - - 0.0
20/09:00pm 13.7 10.4 -4.0 29 7.2 SW 4 6 2 3 - - 0.0
20/08:30pm 13.8 10.6 -3.5 30 7.2 SW 4 6 2 3 - - 0.0
20/08:00pm 14.9 11.8 -3.0 29 7.6 WSW 4 6 2 3 - - 0.0
20/07:30pm 16.2 12.5 -2.8 27 8.2 WSW 7 13 4 7 - - 0.0
20/07:00pm 17.3 13.2 -2.9 25 8.8 WSW 9 15 5 8 - - 0.0
20/06:30pm 18.8 14.9 -1.6 25 9.2 WSW 9 17 5 9 - - 0.0
20/06:00pm 19.1 14.8 -1.4 25 9.3 WSW 11 20 6 11 - - 0.0
20/05:30pm 19.1 15.2 -1.4 25 9.3 W 9 20 5 11 - - 0.0
20/05:00pm 19.8 16.1 -0.2 26 9.3 WNW 9 20 5 11 - - 0.0
20/04:30pm 20.2 17.0 0.6 27 9.3 W 7 19 4 10 - - 0.0
20/04:00pm 19.6 15.5 -0.4 26 9.3 NW 11 22 6 12 - - 0.0
20/03:30pm 20.0 16.9 1.4 29 9.0 WNW 7 17 4 9 - - 0.0
20/03:00pm 19.4 15.4 0.4 28 9.0 W 11 20 6 11 - - 0.0
20/02:30pm 18.4 13.9 -0.4 28 8.7 WSW 13 24 7 13 - - 0.0
20/02:00pm 18.9 14.9 0.5 29 8.7 WNW 11 20 6 11 - - 0.0
20/01:30pm 17.6 13.7 1.2 33 7.7 W 11 19 6 10 - - 0.0
20/01:00pm 17.6 13.1 2.4 36 7.4 W 15 26 8 14 - - 0.0
20/12:30pm 16.0 11.9 2.1 39 6.6 W 13 24 7 13 - - 0.0
20/12:00pm 15.3 10.7 1.8 40 6.3 WSW 15 28 8 15 - - 0.0
20/11:30am 15.5 11.4 4.3 47 5.5 WNW 15 30 8 16 - - 0.0
20/11:00am 13.9 9.6 3.4 49 5.0 W 15 28 8 15 - - 0.0
20/10:30am 12.8 8.5 3.5 53 4.4 W 15 28 8 15 - - 0.0
20/10:00am 11.6 6.9 3.4 57 3.9 W 17 32 9 17 - - 0.0
20/09:30am 11.7 8.0 4.2 60 3.6 W 13 24 7 13 - - 0.0
20/09:00am 10.8 7.3 3.6 61 3.4 W 11 24 6 13 - - 0.0
20/08:30am 9.8 5.9 3.3 64 3.0 W 13 20 7 11 - - 0.0
20/08:00am 9.1 5.5 2.7 64 2.9 W 11 20 6 11 - - 0.0
20/07:30am 8.4 5.0 1.8 63 2.9 W 9 17 5 9 - - 0.0
20/07:00am 7.8 4.7 1.4 64 2.8 W 7 11 4 6 - - 0.0
20/06:30am 7.9 4.8 1.1 62 3.0 W 7 17 4 9 - - 0.0
20/06:00am 8.0 4.4 0.7 60 3.1 W 9 17 5 9 - - 0.0
20/05:30am 8.4 4.8 0.4 57 3.4 W 9 17 5 9 - - 0.0
20/05:00am - - - - - W 11 22 6 12 - - 0.0
20/04:30am - - - - - W 11 20 6 11 - - 0.0
20/04:00am 9.1 5.0 0.0 53 3.9 W 11 24 6 13 - - 0.0
20/03:30am 9.4 5.3 -0.2 51 4.1 W 11 28 6 15 - - 0.0
20/03:00am 9.7 5.2 -0.2 50 4.2 W 13 24 7 13 - - 0.0
20/02:30am 10.1 5.6 -0.4 48 4.5 W 13 26 7 14 - - 0.0
20/02:00am 10.4 5.9 -0.1 48 4.5 W 13 22 7 12 - - 0.0
20/01:30am 10.7 6.6 -0.4 46 4.8 W 11 19 6 10 - - 0.0
20/01:00am 11.0 6.8 -0.8 44 5.0 W 11 20 6 11 - - 0.0
20/12:30am 11.6 7.4 -0.9 42 5.4 W 11 19 6 10 - - 0.0
20/12:00am 12.2 7.9 -1.3 39 5.8 W 11 19 6 10 - - 0.0
 
Date/Time
EDT
Temp
°C
App
Temp
°C
Dew
Point
°C
Rel
Hum
%
Delta-T
°C
Wind Press
QNH
hPa
Press
MSL
hPa
Rain since
9am
mm
Dir  Spd
km/h
Gust
km/h
Spd
kts
Gust
kts
19/11:30pm 12.8 8.5 -1.5 37 6.1 W 11 24 6 13 - - 0.0
19/11:00pm 13.6 8.9 -1.9 34 6.6 W 13 24 7 13 - - 0.0
19/10:30pm 14.1 9.8 -1.9 33 6.9 W 11 24 6 13 - - 0.0
19/10:00pm 14.7 10.4 -1.8 32 7.1 W 11 24 6 13 - - 0.0
19/09:30pm 15.1 10.8 -1.9 31 7.4 W 11 19 6 10 - - 0.0
19/09:00pm 14.9 11.6 -1.6 32 7.2 W 6 9 3 5 - - 0.0
19/08:30pm 16.1 12.1 -1.9 29 7.9 W 9 20 5 11 - - 0.0
19/08:00pm 17.4 13.5 -1.8 27 8.5 W 9 19 5 10 - - 0.0
19/07:30pm 18.6 15.1 -1.3 26 9.0 WNW 7 15 4 8 - - 0.0
19/07:00pm 19.5 15.7 -1.0 25 9.4 NW 9 17 5 9 - - 0.0
19/06:30pm 20.5 16.4 -0.2 25 9.7 W 11 26 6 14 - - 0.0
19/06:00pm 20.9 16.5 0.2 25 9.8 WNW 13 26 7 14 - - 0.0
19/05:30pm 21.9 18.1 1.6 26 10.0 W 11 28 6 15 - - 0.0
19/05:00pm 22.0 18.3 2.2 27 9.8 NW 11 26 6 14 - - 0.0
19/04:30pm 22.8 18.8 2.8 27 10.1 NW 13 24 7 13 - - 0.0
19/04:00pm 22.4 18.0 2.5 27 10.0 NW 15 32 8 17 - - 0.0
19/03:30pm 23.0 18.6 2.5 26 10.3 NW 15 24 8 13 - - 0.0
19/03:00pm 22.4 17.4 3.5 29 9.7 NNW 19 30 10 16 - - 0.0
19/02:30pm 22.4 19.6 7.0 37 8.4 NNW 11 24 6 13 - - 0.0
19/02:00pm 20.8 19.0 9.4 48 6.4 NW 9 19 5 10 - - 0.0
19/01:30pm 20.6 18.5 9.8 50 6.1 NNW 11 19 6 10 - - 0.0
19/01:00pm 21.1 19.1 11.4 54 5.7 NW 13 26 7 14 - - 0.0
19/12:30pm 19.5 18.2 11.3 59 4.7 NW 9 17 5 9 - - 0.0
19/12:00pm 19.2 17.8 12.2 64 4.1 N 11 20 6 11 - - 0.0
19/11:30am 19.3 18.9 13.0 67 3.8 NW 7 15 4 8 - - 0.0
19/11:00am 18.6 18.0 11.7 64 4.0 NNW 6 11 3 6 - - 0.0
19/10:30am 17.5 16.4 10.6 64 3.9 WNW 7 13 4 7 - - 0.0
19/10:00am 16.9 16.3 11.6 71 3.0 NNW 6 11 3 6 - - 0.0
19/09:30am 15.9 15.1 11.1 73 2.7 WSW 6 9 3 5 - - 0.0
19/09:00am 14.8 14.6 11.8 82 1.7 W 4 4 2 2 - - 0.2
19/08:30am 14.4 15.3 13.0 91 0.8 CALM 0 2 0 1 - - 0.2
19/08:00am 14.7 15.8 13.4 92 0.8 CALM 0 0 0 0 - - 0.2
19/07:30am 15.7 17.0 15.1 96 0.4 N 2 7 1 4 - - 0.0
19/07:00am 15.8 17.5 15.3 97 0.3 CALM 0 0 0 0 - - 0.0
19/06:30am 15.8 16.9 15.5 98 0.2 NNE 4 7 2 4 - - 0.0
19/06:00am 15.8 16.9 15.6 99 0.1 NE 4 6 2 3 - - 0.0
19/05:30am 15.6 16.5 15.0 96 0.4 NNE 4 6 2 3 - - 0.0
19/05:00am 16.0 17.9 15.7 98 0.2 CALM 0 0 0 0 - - 0.0
19/04:30am 15.9 17.8 15.7 99 0.1 CALM 0 0 0 0 - - 0.0
19/04:00am 15.7 17.6 15.7 100 0.0 CALM 0 0 0 0 - - 0.0
19/03:30am 15.2 16.5 15.2 100 0.0 NW 2 4 1 2 - - 0.0
19/03:00am 15.3 16.7 14.5 95 0.5 CALM 0 0 0 0 - - 0.0
19/02:30am 16.1 17.4 16.1 100 0.0 WSW 4 6 2 3 - - 0.0
19/02:00am 16.4 18.2 16.4 100 0.0 SE 2 7 1 4 - - 0.0
19/01:30am 16.1 17.4 16.1 100 0.0 SE 4 6 2 3 - - 0.0
19/01:00am 15.9 16.6 15.6 98 0.2 SSE 6 9 3 5 - - 0.0
19/12:30am 16.3 17.4 15.7 96 0.4 SSE 4 7 2 4 - - 0.0
19/12:00am 16.7 17.0 16.1 96 0.4 SSE 9 15 5 8 - - 0.0
 
Date/Time
EDT
Temp
°C
App
Temp
°C
Dew
Point
°C
Rel
Hum
%
Delta-T
°C
Wind Press
QNH
hPa
Press
MSL
hPa
Rain since
9am
mm
Dir  Spd
km/h
Gust
km/h
Spd
kts
Gust
kts
18/11:30pm 17.2 18.5 17.0 99 0.1 SE 6 9 3 5 - - 0.0
18/11:00pm 17.3 17.9 16.8 97 0.3 SSE 9 15 5 8 - - 0.0
18/10:30pm 17.6 17.9 17.1 97 0.3 SE 11 15 6 8 - - 0.0
18/10:00pm 18.1 18.6 17.5 96 0.4 SE 11 17 6 9 - - 0.0
18/09:30pm 18.4 18.6 17.6 95 0.5 SSE 13 19 7 10 - - 0.0

Other Formats:

Comma delimited format used in spreadsheet applications
http://www.bom.gov.au/fwo/IDN60801/IDN60801.94754.axf

JavaScript Object Notation format (JSON) in row-major order
http://www.bom.gov.au/fwo/IDN60801/IDN60801.94754.json